sensor_id;sensor_type;location;lat;lon;timestamp;temperature;humidity
47765;DHT22;33529;49.242;8.670;2022-09-01T00:01:37;17.20;99.90
47765;DHT22;33529;49.242;8.670;2022-09-01T00:04:08;17.20;99.90
47765;DHT22;33529;49.242;8.670;2022-09-01T00:06:37;17.10;99.90
47765;DHT22;33529;49.242;8.670;2022-09-01T00:09:08;17.10;99.90
47765;DHT22;33529;49.242;8.670;2022-09-01T00:11:35;17.10;99.90
47765;DHT22;33529;49.242;8.670;2022-09-01T00:14:04;17.10;99.90
47765;DHT22;33529;49.242;8.670;2022-09-01T00:16:47;17.10;99.90
47765;DHT22;33529;49.242;8.670;2022-09-01T00:19:17;17.10;99.90
47765;DHT22;33529;49.242;8.670;2022-09-01T00:21:45;17.10;99.90
47765;DHT22;33529;49.242;8.670;2022-09-01T00:24:14;17.00;99.90
47765;DHT22;33529;49.242;8.670;2022-09-01T00:26:41;17.00;99.90
47765;DHT22;33529;49.242;8.670;2022-09-01T00:29:08;17.00;99.90
47765;DHT22;33529;49.242;8.670;2022-09-01T00:31:35;17.00;99.90
47765;DHT22;33529;49.242;8.670;2022-09-01T00:34:03;17.00;99.90
47765;DHT22;33529;49.242;8.670;2022-09-01T00:36:30;16.90;99.90
47765;DHT22;33529;49.242;8.670;2022-09-01T00:38:57;16.90;99.90
47765;DHT22;33529;49.242;8.670;2022-09-01T00:41:26;16.90;99.90
47765;DHT22;33529;49.242;8.670;2022-09-01T00:43:56;16.90;99.90
47765;DHT22;33529;49.242;8.670;2022-09-01T00:46:37;16.80;99.90
47765;DHT22;33529;49.242;8.670;2022-09-01T00:49:29;16.80;99.90
47765;DHT22;33529;49.242;8.670;2022-09-01T00:52:01;16.80;99.90
47765;DHT22;33529;49.242;8.670;2022-09-01T00:54:36;16.80;99.90
47765;DHT22;33529;49.242;8.670;2022-09-01T00:57:07;16.80;99.90
47765;DHT22;33529;49.242;8.670;2022-09-01T00:59:38;16.70;99.90
47765;DHT22;33529;49.242;8.670;2022-09-01T01:02:08;16.70;99.90
47765;DHT22;33529;49.242;8.670;2022-09-01T01:04:37;16.70;99.90
47765;DHT22;33529;49.242;8.670;2022-09-01T01:07:03;16.60;99.90
47765;DHT22;33529;49.242;8.670;2022-09-01T01:09:38;16.60;99.90
47765;DHT22;33529;49.242;8.670;2022-09-01T01:12:05;16.50;99.90
47765;DHT22;33529;49.242;8.670;2022-09-01T01:14:34;16.50;99.90
47765;DHT22;33529;49.242;8.670;2022-09-01T01:17:02;16.50;99.90
47765;DHT22;33529;49.242;8.670;2022-09-01T01:19:43;16.50;99.90
47765;DHT22;33529;49.242;8.670;2022-09-01T01:25:49;16.50;99.90
47765;DHT22;33529;49.242;8.670;2022-09-01T01:28:25;16.50;99.90
47765;DHT22;33529;49.242;8.670;2022-09-01T01:30:58;16.40;99.90
47765;DHT22;33529;49.242;8.670;2022-09-01T01:33:34;16.40;99.90
47765;DHT22;33529;49.242;8.670;2022-09-01T01:36:14;16.40;99.90
47765;DHT22;33529;49.242;8.670;2022-09-01T01:38:46;16.40;99.90
47765;DHT22;33529;49.242;8.670;2022-09-01T01:41:16;16.40;99.90
47765;DHT22;33529;49.242;8.670;2022-09-01T01:43:45;16.40;99.90
47765;DHT22;33529;49.242;8.670;2022-09-01T01:46:17;16.30;99.90
47765;DHT22;33529;49.242;8.670;2022-09-01T01:48:45;16.30;99.90
47765;DHT22;33529;49.242;8.670;2022-09-01T01:51:17;16.30;99.90
47765;DHT22;33529;49.242;8.670;2022-09-01T01:53:47;16.30;99.90
47765;DHT22;33529;49.242;8.670;2022-09-01T01:56:18;16.30;99.90
47765;DHT22;33529;49.242;8.670;2022-09-01T01:58:46;16.30;99.90
47765;DHT22;33529;49.242;8.670;2022-09-01T02:01:14;16.30;99.90
47765;DHT22;33529;49.242;8.670;2022-09-01T02:03:42;16.20;99.90
47765;DHT22;33529;49.242;8.670;2022-09-01T02:06:10;16.20;99.90
47765;DHT22;33529;49.242;8.670;2022-09-01T02:08:39;16.20;99.90
47765;DHT22;33529;49.242;8.670;2022-09-01T02:11:07;16.20;99.90
47765;DHT22;33529;49.242;8.670;2022-09-01T02:13:34;16.20;99.90
47765;DHT22;33529;49.242;8.670;2022-09-01T02:16:05;16.20;99.90
47765;DHT22;33529;49.242;8.670;2022-09-01T02:18:36;16.20;99.90
47765;DHT22;33529;49.242;8.670;2022-09-01T02:21:06;16.20;99.90
47765;DHT22;33529;49.242;8.670;2022-09-01T02:23:43;16.10;99.90
47765;DHT22;33529;49.242;8.670;2022-09-01T02:26:10;16.10;99.90
47765;DHT22;33529;49.242;8.670;2022-09-01T02:28:45;16.00;99.90
47765;DHT22;33529;49.242;8.670;2022-09-01T02:31:25;16.00;99.90
47765;DHT22;33529;49.242;8.670;2022-09-01T02:33:54;16.00;99.90
47765;DHT22;33529;49.242;8.670;2022-09-01T02:36:23;15.90;99.90
47765;DHT22;33529;49.242;8.670;2022-09-01T02:38:52;15.90;99.90
47765;DHT22;33529;49.242;8.670;2022-09-01T02:41:24;15.90;99.90
47765;DHT22;33529;49.242;8.670;2022-09-01T02:43:56;15.90;99.90
47765;DHT22;33529;49.242;8.670;2022-09-01T02:46:23;15.90;99.90
47765;DHT22;33529;49.242;8.670;2022-09-01T02:48:52;15.80;99.90
47765;DHT22;33529;49.242;8.670;2022-09-01T02:51:21;15.90;99.90
47765;DHT22;33529;49.242;8.670;2022-09-01T02:53:49;15.90;99.90
47765;DHT22;33529;49.242;8.670;2022-09-01T02:56:20;16.00;99.90
47765;DHT22;33529;49.242;8.670;2022-09-01T02:58:51;15.90;99.90
47765;DHT22;33529;49.242;8.670;2022-09-01T03:01:29;15.90;99.90
47765;DHT22;33529;49.242;8.670;2022-09-01T03:04:00;15.80;99.90
47765;DHT22;33529;49.242;8.670;2022-09-01T03:06:29;15.80;99.90
47765;DHT22;33529;49.242;8.670;2022-09-01T03:08:57;15.80;99.90
47765;DHT22;33529;49.242;8.670;2022-09-01T03:11:29;15.80;99.90
47765;DHT22;33529;49.242;8.670;2022-09-01T03:13:57;15.80;99.90
47765;DHT22;33529;49.242;8.670;2022-09-01T03:16:23;15.80;99.90
47765;DHT22;33529;49.242;8.670;2022-09-01T03:18:51;15.80;99.90
47765;DHT22;33529;49.242;8.670;2022-09-01T03:21:19;15.80;99.90
47765;DHT22;33529;49.242;8.670;2022-09-01T03:23:47;15.70;99.90
47765;DHT22;33529;49.242;8.670;2022-09-01T03:26:15;15.70;99.90
47765;DHT22;33529;49.242;8.670;2022-09-01T03:28:45;15.70;99.90
47765;DHT22;33529;49.242;8.670;2022-09-01T03:31:12;15.70;99.90
47765;DHT22;33529;49.242;8.670;2022-09-01T03:33:41;15.70;99.90
47765;DHT22;33529;49.242;8.670;2022-09-01T03:36:15;15.60;99.90
47765;DHT22;33529;49.242;8.670;2022-09-01T03:38:47;15.70;99.90
47765;DHT22;33529;49.242;8.670;2022-09-01T03:41:18;15.60;99.90
47765;DHT22;33529;49.242;8.670;2022-09-01T03:43:45;15.60;99.90
47765;DHT22;33529;49.242;8.670;2022-09-01T03:46:15;15.70;99.90
47765;DHT22;33529;49.242;8.670;2022-09-01T03:48:56;15.60;99.90
47765;DHT22;33529;49.242;8.670;2022-09-01T03:51:34;15.60;99.90
47765;DHT22;33529;49.242;8.670;2022-09-01T03:54:05;15.60;99.90
47765;DHT22;33529;49.242;8.670;2022-09-01T03:56:35;15.50;99.90
47765;DHT22;33529;49.242;8.670;2022-09-01T03:59:05;15.40;99.90
47765;DHT22;33529;49.242;8.670;2022-09-01T04:01:33;15.40;99.90
47765;DHT22;33529;49.242;8.670;2022-09-01T04:04:10;15.40;99.90
47765;DHT22;33529;49.242;8.670;2022-09-01T04:06:41;15.30;99.90
47765;DHT22;33529;49.242;8.670;2022-09-01T04:09:09;15.30;99.90
47765;DHT22;33529;49.242;8.670;2022-09-01T04:11:38;15.30;99.90
47765;DHT22;33529;49.242;8.670;2022-09-01T04:14:13;15.20;99.90
47765;DHT22;33529;49.242;8.670;2022-09-01T04:16:42;15.20;99.90
47765;DHT22;33529;49.242;8.670;2022-09-01T04:19:28;15.20;99.90
47765;DHT22;33529;49.242;8.670;2022-09-01T04:21:59;15.10;99.90
47765;DHT22;33529;49.242;8.670;2022-09-01T04:24:31;15.00;99.90
47765;DHT22;33529;49.242;8.670;2022-09-01T04:27:01;15.00;99.90
47765;DHT22;33529;49.242;8.670;2022-09-01T04:29:29;15.00;99.90
47765;DHT22;33529;49.242;8.670;2022-09-01T04:32:04;15.00;99.90
47765;DHT22;33529;49.242;8.670;2022-09-01T04:34:35;15.00;99.90
47765;DHT22;33529;49.242;8.670;2022-09-01T04:37:19;15.00;99.90
47765;DHT22;33529;49.242;8.670;2022-09-01T04:39:56;15.00;99.90
47765;DHT22;33529;49.242;8.670;2022-09-01T04:42:27;15.00;99.90
47765;DHT22;33529;49.242;8.670;2022-09-01T04:44:56;15.00;99.90
47765;DHT22;33529;49.242;8.670;2022-09-01T04:47:28;15.00;99.90
47765;DHT22;33529;49.242;8.670;2022-09-01T04:50:06;14.90;99.90
47765;DHT22;33529;49.242;8.670;2022-09-01T04:52:45;14.90;99.90
47765;DHT22;33529;49.242;8.670;2022-09-01T04:55:24;14.90;99.90
47765;DHT22;33529;49.242;8.670;2022-09-01T04:57:55;14.90;99.90
47765;DHT22;33529;49.242;8.670;2022-09-01T05:00:25;14.90;99.90
47765;DHT22;33529;49.242;8.670;2022-09-01T05:02:55;14.80;99.90
47765;DHT22;33529;49.242;8.670;2022-09-01T05:05:43;14.90;99.90
47765;DHT22;33529;49.242;8.670;2022-09-01T05:08:16;14.80;99.90
47765;DHT22;33529;49.242;8.670;2022-09-01T05:10:52;14.80;99.90
47765;DHT22;33529;49.242;8.670;2022-09-01T05:13:36;14.80;99.90
47765;DHT22;33529;49.242;8.670;2022-09-01T05:16:08;14.90;99.90
47765;DHT22;33529;49.242;8.670;2022-09-01T05:18:42;15.00;99.90
47765;DHT22;33529;49.242;8.670;2022-09-01T05:21:17;15.10;99.90
47765;DHT22;33529;49.242;8.670;2022-09-01T05:23:44;15.10;99.90
47765;DHT22;33529;49.242;8.670;2022-09-01T05:26:14;15.10;99.90
47765;DHT22;33529;49.242;8.670;2022-09-01T05:28:46;15.10;99.90
47765;DHT22;33529;49.242;8.670;2022-09-01T05:31:14;15.10;99.90
47765;DHT22;33529;49.242;8.670;2022-09-01T05:33:49;15.10;99.90
47765;DHT22;33529;49.242;8.670;2022-09-01T05:36:20;15.20;99.90
47765;DHT22;33529;49.242;8.670;2022-09-01T05:38:49;15.20;99.90
47765;DHT22;33529;49.242;8.670;2022-09-01T05:41:18;15.30;99.90
47765;DHT22;33529;49.242;8.670;2022-09-01T05:43:48;15.40;99.90
47765;DHT22;33529;49.242;8.670;2022-09-01T05:46:25;15.50;99.90
47765;DHT22;33529;49.242;8.670;2022-09-01T05:48:55;15.60;99.90
47765;DHT22;33529;49.242;8.670;2022-09-01T05:51:25;15.70;99.90
47765;DHT22;33529;49.242;8.670;2022-09-01T05:54:10;15.70;99.90
47765;DHT22;33529;49.242;8.670;2022-09-01T05:56:38;15.80;99.90
47765;DHT22;33529;49.242;8.670;2022-09-01T05:59:12;16.00;99.90
47765;DHT22;33529;49.242;8.670;2022-09-01T06:01:50;16.10;99.90
47765;DHT22;33529;49.242;8.670;2022-09-01T06:04:19;16.30;99.90
47765;DHT22;33529;49.242;8.670;2022-09-01T06:06:49;16.30;99.90
47765;DHT22;33529;49.242;8.670;2022-09-01T06:09:38;16.40;99.90
47765;DHT22;33529;49.242;8.670;2022-09-01T06:12:06;16.60;99.90
47765;DHT22;33529;49.242;8.670;2022-09-01T06:14:45;16.70;99.90
47765;DHT22;33529;49.242;8.670;2022-09-01T06:17:14;16.90;99.90
47765;DHT22;33529;49.242;8.670;2022-09-01T06:19:48;17.00;99.90
47765;DHT22;33529;49.242;8.670;2022-09-01T06:22:16;17.20;99.90
47765;DHT22;33529;49.242;8.670;2022-09-01T06:24:43;17.30;99.90
47765;DHT22;33529;49.242;8.670;2022-09-01T06:27:14;17.50;99.90
47765;DHT22;33529;49.242;8.670;2022-09-01T06:29:43;17.60;99.90
47765;DHT22;33529;49.242;8.670;2022-09-01T06:32:11;17.70;99.90
47765;DHT22;33529;49.242;8.670;2022-09-01T06:34:42;17.80;99.90
47765;DHT22;33529;49.242;8.670;2022-09-01T06:37:10;17.80;99.90
47765;DHT22;33529;49.242;8.670;2022-09-01T06:39:38;17.90;99.90
47765;DHT22;33529;49.242;8.670;2022-09-01T06:42:05;17.90;99.90
47765;DHT22;33529;49.242;8.670;2022-09-01T06:44:44;18.00;99.90
47765;DHT22;33529;49.242;8.670;2022-09-01T06:47:12;18.00;99.90
47765;DHT22;33529;49.242;8.670;2022-09-01T06:49:41;18.10;99.90
47765;DHT22;33529;49.242;8.670;2022-09-01T06:52:13;18.10;99.90
47765;DHT22;33529;49.242;8.670;2022-09-01T06:54:41;18.10;99.90
47765;DHT22;33529;49.242;8.670;2022-09-01T06:57:10;18.10;99.90
47765;DHT22;33529;49.242;8.670;2022-09-01T06:59:57;18.10;99.90
47765;DHT22;33529;49.242;8.670;2022-09-01T07:02:24;18.30;99.90
47765;DHT22;33529;49.242;8.670;2022-09-01T07:05:11;18.20;99.90
47765;DHT22;33529;49.242;8.670;2022-09-01T07:08:02;18.30;99.90
47765;DHT22;33529;49.242;8.670;2022-09-01T07:10:50;18.50;99.90
47765;DHT22;33529;49.242;8.670;2022-09-01T07:13:37;18.70;99.90
47765;DHT22;33529;49.242;8.670;2022-09-01T07:16:25;18.80;99.90
47765;DHT22;33529;49.242;8.670;2022-09-01T07:19:02;18.90;99.90
47765;DHT22;33529;49.242;8.670;2022-09-01T07:21:31;19.00;99.90
47765;DHT22;33529;49.242;8.670;2022-09-01T07:24:10;19.10;99.90
47765;DHT22;33529;49.242;8.670;2022-09-01T07:26:49;19.00;99.90
47765;DHT22;33529;49.242;8.670;2022-09-01T07:29:18;18.90;99.90
47765;DHT22;33529;49.242;8.670;2022-09-01T07:31:45;18.90;99.90
47765;DHT22;33529;49.242;8.670;2022-09-01T07:34:16;18.80;99.90
47765;DHT22;33529;49.242;8.670;2022-09-01T07:37:04;18.70;99.90
47765;DHT22;33529;49.242;8.670;2022-09-01T07:39:52;18.70;99.90
47765;DHT22;33529;49.242;8.670;2022-09-01T07:42:53;18.90;99.90
47765;DHT22;33529;49.242;8.670;2022-09-01T07:45:48;18.90;99.90
47765;DHT22;33529;49.242;8.670;2022-09-01T07:48:26;19.00;99.90
47765;DHT22;33529;49.242;8.670;2022-09-01T07:51:18;19.20;99.90
47765;DHT22;33529;49.242;8.670;2022-09-01T07:54:04;19.40;99.90
47765;DHT22;33529;49.242;8.670;2022-09-01T07:56:32;19.50;99.90
47765;DHT22;33529;49.242;8.670;2022-09-01T07:59:07;19.70;99.90
47765;DHT22;33529;49.242;8.670;2022-09-01T08:01:48;19.70;99.90
47765;DHT22;33529;49.242;8.670;2022-09-01T08:04:16;19.80;99.90
47765;DHT22;33529;49.242;8.670;2022-09-01T08:06:44;19.80;99.90
47765;DHT22;33529;49.242;8.670;2022-09-01T08:09:12;19.90;99.90
47765;DHT22;33529;49.242;8.670;2022-09-01T08:11:59;19.80;99.90
47765;DHT22;33529;49.242;8.670;2022-09-01T08:14:31;19.50;99.90
47765;DHT22;33529;49.242;8.670;2022-09-01T08:17:00;19.70;99.90
47765;DHT22;33529;49.242;8.670;2022-09-01T08:19:43;20.00;99.90
47765;DHT22;33529;49.242;8.670;2022-09-01T08:22:19;20.20;99.90
47765;DHT22;33529;49.242;8.670;2022-09-01T08:24:56;20.40;99.90
47765;DHT22;33529;49.242;8.670;2022-09-01T08:27:23;20.60;99.90
47765;DHT22;33529;49.242;8.670;2022-09-01T08:29:50;20.60;99.90
47765;DHT22;33529;49.242;8.670;2022-09-01T08:32:16;20.50;99.90
47765;DHT22;33529;49.242;8.670;2022-09-01T08:34:43;20.70;99.90
47765;DHT22;33529;49.242;8.670;2022-09-01T08:37:10;20.70;99.90
47765;DHT22;33529;49.242;8.670;2022-09-01T08:39:39;20.80;99.90
47765;DHT22;33529;49.242;8.670;2022-09-01T08:45:07;20.80;99.90
47765;DHT22;33529;49.242;8.670;2022-09-01T08:47:38;20.90;99.90
47765;DHT22;33529;49.242;8.670;2022-09-01T08:50:25;20.80;99.90
47765;DHT22;33529;49.242;8.670;2022-09-01T08:55:52;20.90;99.90
47765;DHT22;33529;49.242;8.670;2022-09-01T08:58:20;21.00;99.90
47765;DHT22;33529;49.242;8.670;2022-09-01T09:01:16;21.20;99.90
47765;DHT22;33529;49.242;8.670;2022-09-01T09:03:59;21.10;99.90
47765;DHT22;33529;49.242;8.670;2022-09-01T09:06:37;20.90;99.90
47765;DHT22;33529;49.242;8.670;2022-09-01T09:09:09;21.00;99.90
47765;DHT22;33529;49.242;8.670;2022-09-01T09:11:40;21.20;99.90
47765;DHT22;33529;49.242;8.670;2022-09-01T09:17:06;21.20;99.90
47765;DHT22;33529;49.242;8.670;2022-09-01T09:22:11;21.30;99.90
47765;DHT22;33529;49.242;8.670;2022-09-01T09:27:19;21.30;99.90
47765;DHT22;33529;49.242;8.670;2022-09-01T09:29:48;21.50;99.90
47765;DHT22;33529;49.242;8.670;2022-09-01T09:32:16;21.60;99.90
47765;DHT22;33529;49.242;8.670;2022-09-01T09:35:22;21.60;99.90
47765;DHT22;33529;49.242;8.670;2022-09-01T09:37:49;21.50;99.90
47765;DHT22;33529;49.242;8.670;2022-09-01T09:40:22;21.70;99.90
47765;DHT22;33529;49.242;8.670;2022-09-01T09:45:30;22.20;99.90
47765;DHT22;33529;49.242;8.670;2022-09-01T09:48:05;22.60;99.90
47765;DHT22;33529;49.242;8.670;2022-09-01T09:50:41;22.60;99.90
47765;DHT22;33529;49.242;8.670;2022-09-01T09:53:21;22.50;99.90
47765;DHT22;33529;49.242;8.670;2022-09-01T09:58:26;22.50;99.90
47765;DHT22;33529;49.242;8.670;2022-09-01T10:01:04;22.70;99.90
47765;DHT22;33529;49.242;8.670;2022-09-01T10:03:38;22.40;99.90
47765;DHT22;33529;49.242;8.670;2022-09-01T10:06:12;22.10;99.90
47765;DHT22;33529;49.242;8.670;2022-09-01T10:08:43;22.00;99.90
47765;DHT22;33529;49.242;8.670;2022-09-01T10:11:30;21.90;99.90
47765;DHT22;33529;49.242;8.670;2022-09-01T10:14:05;22.30;99.90
47765;DHT22;33529;49.242;8.670;2022-09-01T10:16:33;22.60;99.90
47765;DHT22;33529;49.242;8.670;2022-09-01T10:19:04;22.80;99.90
47765;DHT22;33529;49.242;8.670;2022-09-01T10:21:40;22.40;99.90
47765;DHT22;33529;49.242;8.670;2022-09-01T10:24:29;22.30;99.90
47765;DHT22;33529;49.242;8.670;2022-09-01T10:27:00;22.50;99.90
47765;DHT22;33529;49.242;8.670;2022-09-01T10:29:33;22.50;99.90
47765;DHT22;33529;49.242;8.670;2022-09-01T10:32:19;22.60;99.90
47765;DHT22;33529;49.242;8.670;2022-09-01T10:35:03;22.60;99.70
47765;DHT22;33529;49.242;8.670;2022-09-01T10:37:31;22.60;99.90
47765;DHT22;33529;49.242;8.670;2022-09-01T10:42:59;23.00;99.80
47765;DHT22;33529;49.242;8.670;2022-09-01T10:45:45;23.20;99.90
47765;DHT22;33529;49.242;8.670;2022-09-01T10:48:21;23.40;99.50
47765;DHT22;33529;49.242;8.670;2022-09-01T10:53:54;23.90;97.50
47765;DHT22;33529;49.242;8.670;2022-09-01T10:56:46;23.90;98.00
47765;DHT22;33529;49.242;8.670;2022-09-01T11:02:14;23.90;96.70
47765;DHT22;33529;49.242;8.670;2022-09-01T11:07:34;23.50;96.70
47765;DHT22;33529;49.242;8.670;2022-09-01T11:10:42;23.50;96.50
47765;DHT22;33529;49.242;8.670;2022-09-01T11:16:40;23.70;96.60
47765;DHT22;33529;49.242;8.670;2022-09-01T11:27:07;24.10;96.40
47765;DHT22;33529;49.242;8.670;2022-09-01T11:32:27;24.00;95.70
47765;DHT22;33529;49.242;8.670;2022-09-01T11:35:00;23.90;96.40
47765;DHT22;33529;49.242;8.670;2022-09-01T11:37:28;24.00;95.90
47765;DHT22;33529;49.242;8.670;2022-09-01T11:39:57;24.10;96.20
47765;DHT22;33529;49.242;8.670;2022-09-01T11:42:28;24.20;95.10
47765;DHT22;33529;49.242;8.670;2022-09-01T11:45:05;24.10;95.10
47765;DHT22;33529;49.242;8.670;2022-09-01T11:47:42;24.00;95.30
47765;DHT22;33529;49.242;8.670;2022-09-01T11:50:20;23.90;95.60
47765;DHT22;33529;49.242;8.670;2022-09-01T11:55:40;23.80;95.80
47765;DHT22;33529;49.242;8.670;2022-09-01T12:00:56;23.90;95.50
47765;DHT22;33529;49.242;8.670;2022-09-01T12:03:28;23.80;95.10
47765;DHT22;33529;49.242;8.670;2022-09-01T12:05:58;23.80;94.50
47765;DHT22;33529;49.242;8.670;2022-09-01T12:08:30;23.70;95.00
47765;DHT22;33529;49.242;8.670;2022-09-01T12:11:05;23.80;95.70
47765;DHT22;33529;49.242;8.670;2022-09-01T12:13:33;23.90;94.80
47765;DHT22;33529;49.242;8.670;2022-09-01T12:16:04;24.00;95.10
47765;DHT22;33529;49.242;8.670;2022-09-01T12:18:50;24.20;95.40
47765;DHT22;33529;49.242;8.670;2022-09-01T12:24:19;24.70;94.70
47765;DHT22;33529;49.242;8.670;2022-09-01T12:26:48;24.80;94.10
47765;DHT22;33529;49.242;8.670;2022-09-01T12:29:16;24.90;94.20
47765;DHT22;33529;49.242;8.670;2022-09-01T12:31:46;24.80;92.90
47765;DHT22;33529;49.242;8.670;2022-09-01T12:37:21;24.60;92.90
47765;DHT22;33529;49.242;8.670;2022-09-01T12:39:50;24.60;93.20
47765;DHT22;33529;49.242;8.670;2022-09-01T12:44:51;24.40;93.70
47765;DHT22;33529;49.242;8.670;2022-09-01T12:52:57;24.20;93.30
47765;DHT22;33529;49.242;8.670;2022-09-01T12:58:22;24.00;93.60
47765;DHT22;33529;49.242;8.670;2022-09-01T13:01:06;23.90;93.20
47765;DHT22;33529;49.242;8.670;2022-09-01T13:03:44;23.80;93.40
47765;DHT22;33529;49.242;8.670;2022-09-01T13:06:29;23.70;93.00
47765;DHT22;33529;49.242;8.670;2022-09-01T13:08:56;23.80;93.00
47765;DHT22;33529;49.242;8.670;2022-09-01T13:11:22;23.90;92.30
47765;DHT22;33529;49.242;8.670;2022-09-01T13:13:49;24.00;92.90
47765;DHT22;33529;49.242;8.670;2022-09-01T13:16:16;24.10;92.00
47765;DHT22;33529;49.242;8.670;2022-09-01T13:18:43;24.20;92.10
47765;DHT22;33529;49.242;8.670;2022-09-01T13:21:31;24.40;92.70
47765;DHT22;33529;49.242;8.670;2022-09-01T13:24:02;24.60;91.80
47765;DHT22;33529;49.242;8.670;2022-09-01T13:26:31;24.70;91.30
47765;DHT22;33529;49.242;8.670;2022-09-01T13:28:58;24.80;90.80
47765;DHT22;33529;49.242;8.670;2022-09-01T13:31:25;24.80;91.60
47765;DHT22;33529;49.242;8.670;2022-09-01T13:33:57;24.90;91.30
47765;DHT22;33529;49.242;8.670;2022-09-01T13:36:44;25.00;90.70
47765;DHT22;33529;49.242;8.670;2022-09-01T13:39:17;24.80;90.50
47765;DHT22;33529;49.242;8.670;2022-09-01T13:41:44;24.80;91.70
47765;DHT22;33529;49.242;8.670;2022-09-01T13:44:13;24.70;90.60
47765;DHT22;33529;49.242;8.670;2022-09-01T13:46:43;24.70;91.40
47765;DHT22;33529;49.242;8.670;2022-09-01T13:49:30;24.70;91.40
47765;DHT22;33529;49.242;8.670;2022-09-01T13:52:17;24.90;91.00
47765;DHT22;33529;49.242;8.670;2022-09-01T13:54:44;24.90;91.60
47765;DHT22;33529;49.242;8.670;2022-09-01T13:57:13;24.80;90.80
47765;DHT22;33529;49.242;8.670;2022-09-01T13:59:42;24.70;91.10
47765;DHT22;33529;49.242;8.670;2022-09-01T14:02:09;24.70;90.70
47765;DHT22;33529;49.242;8.670;2022-09-01T14:04:36;24.70;91.20
47765;DHT22;33529;49.242;8.670;2022-09-01T14:07:03;24.80;90.80
47765;DHT22;33529;49.242;8.670;2022-09-01T14:09:31;24.80;91.00
47765;DHT22;33529;49.242;8.670;2022-09-01T14:12:00;25.00;90.70
47765;DHT22;33529;49.242;8.670;2022-09-01T14:14:27;24.90;89.70
47765;DHT22;33529;49.242;8.670;2022-09-01T14:17:14;25.00;90.40
47765;DHT22;33529;49.242;8.670;2022-09-01T14:19:41;25.00;90.30
47765;DHT22;33529;49.242;8.670;2022-09-01T14:22:08;25.00;90.70
47765;DHT22;33529;49.242;8.670;2022-09-01T14:24:35;25.10;89.40
47765;DHT22;33529;49.242;8.670;2022-09-01T14:27:07;25.00;90.40
47765;DHT22;33529;49.242;8.670;2022-09-01T14:29:35;25.10;90.10
47765;DHT22;33529;49.242;8.670;2022-09-01T14:32:02;25.10;90.10
47765;DHT22;33529;49.242;8.670;2022-09-01T14:34:29;25.10;88.90
47765;DHT22;33529;49.242;8.670;2022-09-01T14:36:56;25.10;89.30
47765;DHT22;33529;49.242;8.670;2022-09-01T14:39:24;25.10;89.20
47765;DHT22;33529;49.242;8.670;2022-09-01T14:41:51;25.20;89.50
47765;DHT22;33529;49.242;8.670;2022-09-01T14:44:17;25.30;88.20
47765;DHT22;33529;49.242;8.670;2022-09-01T14:46:44;25.30;89.80
47765;DHT22;33529;49.242;8.670;2022-09-01T14:49:12;25.30;90.00
47765;DHT22;33529;49.242;8.670;2022-09-01T14:51:47;25.40;89.20
47765;DHT22;33529;49.242;8.670;2022-09-01T14:54:36;25.70;90.30
47765;DHT22;33529;49.242;8.670;2022-09-01T14:57:05;25.80;88.60
47765;DHT22;33529;49.242;8.670;2022-09-01T14:59:52;25.80;88.40
47765;DHT22;33529;49.242;8.670;2022-09-01T15:02:19;25.80;87.60
47765;DHT22;33529;49.242;8.670;2022-09-01T15:04:45;25.90;88.20
47765;DHT22;33529;49.242;8.670;2022-09-01T15:07:12;25.80;89.50
47765;DHT22;33529;49.242;8.670;2022-09-01T15:09:40;25.80;88.80
47765;DHT22;33529;49.242;8.670;2022-09-01T15:12:08;25.70;89.20
47765;DHT22;33529;49.242;8.670;2022-09-01T15:14:36;25.60;87.40
47765;DHT22;33529;49.242;8.670;2022-09-01T15:17:03;25.80;88.40
47765;DHT22;33529;49.242;8.670;2022-09-01T15:19:30;25.80;87.80
47765;DHT22;33529;49.242;8.670;2022-09-01T15:21:58;25.80;88.40
47765;DHT22;33529;49.242;8.670;2022-09-01T15:24:25;25.70;85.60
47765;DHT22;33529;49.242;8.670;2022-09-01T15:26:51;25.80;86.40
47765;DHT22;33529;49.242;8.670;2022-09-01T15:29:18;25.70;86.60
47765;DHT22;33529;49.242;8.670;2022-09-01T15:31:45;25.70;84.30
47765;DHT22;33529;49.242;8.670;2022-09-01T15:34:12;25.60;84.10
47765;DHT22;33529;49.242;8.670;2022-09-01T15:36:40;25.70;84.10
47765;DHT22;33529;49.242;8.670;2022-09-01T15:39:08;25.70;82.80
47765;DHT22;33529;49.242;8.670;2022-09-01T15:41:36;25.80;83.30
47765;DHT22;33529;49.242;8.670;2022-09-01T15:44:05;26.10;84.10
47765;DHT22;33529;49.242;8.670;2022-09-01T15:46:34;26.30;83.70
47765;DHT22;33529;49.242;8.670;2022-09-01T15:49:03;26.60;83.00
47765;DHT22;33529;49.242;8.670;2022-09-01T15:51:33;26.90;84.20
47765;DHT22;33529;49.242;8.670;2022-09-01T15:54:09;27.50;82.30
47765;DHT22;33529;49.242;8.670;2022-09-01T15:56:36;28.10;79.50
47765;DHT22;33529;49.242;8.670;2022-09-01T15:59:04;28.00;79.10
47765;DHT22;33529;49.242;8.670;2022-09-01T16:01:37;27.50;79.20
47765;DHT22;33529;49.242;8.670;2022-09-01T16:04:07;27.50;80.90
47765;DHT22;33529;49.242;8.670;2022-09-01T16:06:34;27.50;80.30
47765;DHT22;33529;49.242;8.670;2022-09-01T16:09:01;27.70;80.10
47765;DHT22;33529;49.242;8.670;2022-09-01T16:11:29;27.70;80.00
47765;DHT22;33529;49.242;8.670;2022-09-01T16:13:55;27.50;78.50
47765;DHT22;33529;49.242;8.670;2022-09-01T16:24:25;26.10;82.10
47765;DHT22;33529;49.242;8.670;2022-09-01T16:26:55;25.80;82.10
47765;DHT22;33529;49.242;8.670;2022-09-01T16:31:54;25.20;83.50
47765;DHT22;33529;49.242;8.670;2022-09-01T16:34:21;25.00;83.50
47765;DHT22;33529;49.242;8.670;2022-09-01T16:39:49;24.70;84.90
47765;DHT22;33529;49.242;8.670;2022-09-01T16:42:57;24.60;84.70
47765;DHT22;33529;49.242;8.670;2022-09-01T16:51:24;24.30;86.70
47765;DHT22;33529;49.242;8.670;2022-09-01T16:56:35;24.10;87.90
47765;DHT22;33529;49.242;8.670;2022-09-01T17:02:05;24.00;89.50
47765;DHT22;33529;49.242;8.670;2022-09-01T17:04:48;23.80;88.60
47765;DHT22;33529;49.242;8.670;2022-09-01T17:07:28;23.70;88.90
47765;DHT22;33529;49.242;8.670;2022-09-01T17:10:03;23.50;89.90
47765;DHT22;33529;49.242;8.670;2022-09-01T17:15:28;23.30;90.40
47765;DHT22;33529;49.242;8.670;2022-09-01T17:21:08;23.10;90.40
47765;DHT22;33529;49.242;8.670;2022-09-01T17:23:40;23.00;90.60
47765;DHT22;33529;49.242;8.670;2022-09-01T17:26:19;22.90;90.50
47765;DHT22;33529;49.242;8.670;2022-09-01T17:28:55;22.80;90.90
47765;DHT22;33529;49.242;8.670;2022-09-01T17:42:13;22.40;91.30
47765;DHT22;33529;49.242;8.670;2022-09-01T17:44:52;22.30;91.50
47765;DHT22;33529;49.242;8.670;2022-09-01T17:47:42;22.20;91.30
47765;DHT22;33529;49.242;8.670;2022-09-01T17:50:21;22.10;90.60
47765;DHT22;33529;49.242;8.670;2022-09-01T17:55:44;22.00;90.80
47765;DHT22;33529;49.242;8.670;2022-09-01T17:58:47;21.90;91.10
47765;DHT22;33529;49.242;8.670;2022-09-01T18:01:23;21.80;91.40